Time;durP1;ratioP1;P1;durP2;ratioP2;P2;SDS_P1;SDS_P2;PMS_P1;PMS_P2;Temp;Humidity;BMP_temperature;BMP_pressure;BME280_temperature;BME280_humidity;BME280_pressure;Samples;Min_cycle;Max_cycle;Signal;HPM_P1;HPM_P2
2022/08/10 00:00:21;;;;;;;5.75;2.30;;;;;;;-144.47;40.89;53066.63;5054730;28;20121;-68
2022/08/10 00:02:55;;;;;;;5.57;2.58;;;;;;;-144.47;40.99;53070.59;5027365;28;20044;-68
2022/08/10 00:05:21;;;;;;;5.53;2.67;;;;;;;-144.47;41.22;53052.72;5097278;22;20033;-89
2022/08/10 00:07:55;;;;;;;6.13;2.70;;;;;;;-144.47;41.28;53108.34;5068645;28;20206;-89
2022/08/10 00:10:23;;;;;;;10.35;2.45;;;;;;;-144.47;41.42;53072.59;5084488;28;20032;-87
2022/08/10 00:12:48;;;;;;;7.65;2.58;;;;;;;-144.47;41.58;53066.63;5056831;28;20087;-90
2022/08/10 00:15:16;;;;;;;5.85;2.45;;;;;;;-144.47;41.80;53086.50;5050150;28;20033;-88
2022/08/10 00:17:42;;;;;;;6.45;2.50;;;;;;;-144.47;41.90;53084.50;5049589;28;20143;-89
2022/08/10 00:20:08;;;;;;;4.15;2.50;;;;;;;-144.47;41.97;53088.47;5032408;28;20067;-89
2022/08/10 00:22:34;;;;;;;5.82;2.70;;;;;;;-144.47;42.10;53090.47;5047201;28;20020;-89
2022/08/10 00:25:02;;;;;;;7.93;2.70;;;;;;;-144.47;42.31;53086.50;5050645;28;20042;-88
2022/08/10 00:27:29;;;;;;;12.55;2.47;;;;;;;-144.47;42.37;53072.59;5053016;28;20120;-89
2022/08/10 00:29:55;;;;;;;4.75;2.42;;;;;;;-144.47;42.54;53052.72;5053049;28;20498;-89
2022/08/10 00:32:21;;;;;;;8.45;3.03;;;;;;;-144.47;42.52;53086.50;5053005;28;20048;-89
2022/08/10 00:34:47;;;;;;;10.77;2.53;;;;;;;-144.47;42.68;53122.25;5071467;28;20169;-88
2022/08/10 00:37:18;;;;;;;9.15;2.67;;;;;;;-144.47;42.77;53084.50;5054655;28;20091;-89
2022/08/10 00:39:45;;;;;;;6.88;2.70;;;;;;;-144.47;42.90;53082.53;5043276;28;20027;-87
2022/08/10 00:42:13;;;;;;;11.80;2.67;;;;;;;-144.47;42.98;53092.44;5035010;28;20345;-89
2022/08/10 00:44:44;;;;;;;8.13;2.60;;;;;;;-144.47;43.07;53086.50;5034785;28;20020;-87
2022/08/10 00:47:13;;;;;;;8.27;2.50;;;;;;;-144.47;43.22;53110.31;5047597;28;20052;-87
2022/08/10 00:49:39;;;;;;;6.78;2.40;;;;;;;-144.47;43.34;53096.41;5072733;28;20070;-87
2022/08/10 00:52:10;;;;;;;5.00;2.45;;;;;;;-144.47;43.39;53052.72;5070713;28;20052;-87
2022/08/10 00:54:41;;;;;;;6.45;2.35;;;;;;;-144.47;43.49;53094.44;5070607;28;20043;-86
2022/08/10 00:57:12;;;;;;;5.30;2.33;;;;;;;-144.47;43.51;53096.41;5070300;28;20025;-85
2022/08/10 00:59:38;;;;;;;5.00;2.35;;;;;;;-144.47;43.69;53076.56;5069848;28;20031;-86
2022/08/10 01:02:14;;;;;;;;;;;;;;;;;;;;;
2022/08/10 01:04:43;;;;;;;5.53;2.30;;;;;;;-144.47;43.89;53094.44;5060683;28;20094;-87
2022/08/10 01:07:42;;;;;;;9.20;2.90;;;;;;;-144.47;44.00;53114.31;5035950;28;20025;-86
2022/08/10 01:10:25;;;;;;;8.18;2.40;;;;;;;-144.47;44.19;53110.31;5043546;28;20036;-86
2022/08/10 01:13:11;;;;;;;6.60;2.85;;;;;;;-144.47;44.24;53090.47;5052154;28;20029;-87
2022/08/10 01:15:59;;;;;;;9.07;2.75;;;;;;;-144.47;44.31;53080.53;5052838;28;20025;-87
2022/08/10 01:18:46;;;;;;;8.82;3.25;;;;;;;-144.47;44.58;53118.28;5070637;28;20111;-87
2022/08/10 01:21:23;;;;;;;6.35;3.10;;;;;;;-144.47;44.62;53128.22;5052517;28;20025;-86
2022/08/10 01:23:57;;;;;;;5.35;2.78;;;;;;;-144.47;44.77;53104.38;5070266;28;20070;-87
2022/08/10 01:26:44;;;;;;;4.38;2.45;;;;;;;-144.47;44.89;53060.66;5070151;28;20066;-86
2022/08/10 01:29:34;;;;;;;4.72;2.67;;;;;;;-144.47;44.95;53082.53;5051685;28;20420;-85
2022/08/10 01:32:04;;;;;;;9.00;2.95;;;;;;;-144.47;44.98;53068.63;5039669;28;20303;-85
2022/08/10 01:34:48;;;;;;;6.88;2.67;;;;;;;-144.47;45.07;53102.38;5052677;28;20055;-86
2022/08/10 01:37:22;;;;;;;8.27;2.97;;;;;;;-144.47;45.22;53088.47;5052142;28;20404;-86
2022/08/10 01:39:55;;;;;;;6.28;2.90;;;;;;;-144.47;45.32;53064.66;5069053;28;20024;-85
2022/08/10 01:42:22;;;;;;;6.60;3.15;;;;;;;-144.47;45.47;53106.34;5056417;28;20028;-86
2022/08/10 01:44:55;;;;;;;12.73;2.40;;;;;;;-144.47;45.55;53116.28;5073969;28;20076;-86
2022/08/10 01:50:39;;;;;;;7.22;2.67;;;;;;;-144.47;45.69;53094.44;5076216;28;20356;-87
2022/08/10 01:53:11;;;;;;;8.00;2.95;;;;;;;-144.47;45.99;53098.41;5055899;28;20051;-86
2022/08/10 01:55:42;;;;;;;7.88;2.80;;;;;;;-144.47;46.05;53163.97;5056217;28;20074;-86
2022/08/10 01:58:12;;;;;;;5.82;2.83;;;;;;;-144.47;46.05;53142.09;5056392;28;20031;-87
2022/08/10 02:00:41;;;;;;;7.93;2.60;;;;;;;-144.47;46.33;53130.19;5055779;28;20121;-86
2022/08/10 02:03:07;;;;;;;;;;;;;;;-144.47;46.37;53098.41;5056911;28;20146;-87
2022/08/10 02:05:44;;;;;;;5.85;3.13;;;;;;;-144.47;46.49;53102.38;5074002;28;19912;-87
2022/08/10 02:08:16;;;;;;;6.80;3.03;;;;;;;-144.47;46.55;53070.59;5073660;28;20025;-87
2022/08/10 02:10:48;;;;;;;7.55;2.53;;;;;;;-144.47;46.74;53094.44;5073328;28;20044;-87
2022/08/10 02:13:16;;;;;;;8.80;2.65;;;;;;;-144.47;46.85;53120.25;5055943;28;20024;-87
2022/08/10 02:15:54;;;;;;;8.65;2.88;;;;;;;-144.47;46.86;53116.28;5074034;28;20036;-86
2022/08/10 02:18:23;;;;;;;9.90;2.70;;;;;;;-144.47;47.04;53070.59;5055919;28;20459;-88
2022/08/10 02:20:52;;;;;;;;;;;;;;;-144.47;47.07;53116.28;5056613;28;20295;-86
2022/08/10 02:23:24;;;;;;;;;;;;;;;-144.47;47.19;53086.50;5055346;28;19908;-87
2022/08/10 02:25:56;;;;;;;11.23;3.00;;;;;;;-144.47;47.35;53116.28;5057160;28;19994;-87
2022/08/10 02:28:24;;;;;;;7.75;2.75;;;;;;;-144.47;47.59;53122.25;5056124;28;20191;-87
2022/08/10 02:30:53;;;;;;;18.63;2.88;;;;;;;-144.47;47.53;53110.31;5055241;28;20020;-86
2022/08/10 02:33:22;;;;;;;7.47;2.65;;;;;;;-144.47;47.74;53094.44;5055069;28;20480;-87
2022/08/10 02:35:52;;;;;;;8.57;3.05;;;;;;;-144.47;47.77;53110.31;5073464;28;20086;-86
2022/08/10 02:38:40;;;;;;;8.52;2.67;;;;;;;-144.47;47.90;53086.50;5073296;28;20119;-86
2022/08/10 02:41:37;;;;;;;6.30;3.00;;;;;;;-144.47;47.92;53104.38;5073586;28;20436;-86
2022/08/10 02:44:09;;;;;;;15.20;3.47;;;;;;;-144.47;48.05;53138.13;5073722;28;20431;-86
2022/08/10 02:46:58;;;;;;;14.98;4.78;;;;;;;-144.47;48.12;53128.22;5054956;28;20505;-86
2022/08/10 02:49:32;;;;;;;14.45;2.65;;;;;;;-144.47;48.30;53092.44;5073358;28;20035;-86
2022/08/10 02:52:05;;;;;;;9.50;2.90;;;;;;;-144.47;48.46;53128.22;5074226;28;20020;-88
2022/08/10 02:54:36;;;;;;;8.38;2.70;;;;;;;-144.47;48.37;53140.13;5045164;28;20033;-87
2022/08/10 02:57:11;;;;;;;10.70;3.08;;;;;;;-144.47;48.58;53114.31;5073154;28;20447;-86
2022/08/10 02:59:49;;;;;;;7.70;2.83;;;;;;;-144.47;48.52;53112.31;5049289;28;20029;-86
2022/08/10 03:02:35;;;;;;;7.13;3.00;;;;;;;-144.47;48.52;53114.31;5074476;28;20096;-87
2022/08/10 03:05:06;;;;;;;6.55;2.80;;;;;;;-144.47;48.56;53110.31;5076434;28;20017;-88
2022/08/10 03:07:42;;;;;;;13.27;3.20;;;;;;;-144.47;48.54;53104.38;5077872;28;20115;-86
2022/08/10 03:10:20;;;;;;;11.20;3.30;;;;;;;-144.47;48.51;53138.13;5091847;28;20025;-87
2022/08/10 03:12:49;;;;;;;7.65;3.13;;;;;;;-144.47;48.55;53110.31;5071630;28;20036;-87
2022/08/10 03:15:25;;;;;;;6.57;2.90;;;;;;;-144.47;48.48;53096.41;5089161;28;20557;-87
2022/08/10 03:17:53;;;;;;;6.38;2.90;;;;;;;-144.47;48.56;53112.31;5070878;28;20092;-85
2022/08/10 03:20:24;;;;;;;8.85;3.25;;;;;;;-144.47;48.60;53120.25;5074060;28;20051;-86
2022/08/10 03:22:57;;;;;;;8.10;2.80;;;;;;;-144.47;48.66;53132.19;5072474;28;20025;-86
2022/08/10 03:25:30;;;;;;;7.80;3.25;;;;;;;-144.47;48.58;53114.31;5073738;28;20031;-86
2022/08/10 03:28:02;;;;;;;9.73;2.80;;;;;;;-144.47;48.56;53084.50;5074203;28;20021;-87
2022/08/10 03:30:32;;;;;;;7.65;3.47;;;;;;;-144.47;48.75;53150.06;5060138;28;20031;-87
2022/08/10 03:33:00;;;;;;;7.13;2.67;;;;;;;-144.47;48.80;53102.38;5063228;28;20123;-87
2022/08/10 03:35:27;;;;;;;11.80;2.92;;;;;;;-144.47;48.76;53114.31;5065484;28;20112;-87
2022/08/10 03:37:57;;;;;;;7.28;3.10;;;;;;;-144.47;48.85;53090.47;5072427;28;20103;-85
2022/08/10 03:40:27;;;;;;;8.82;3.40;;;;;;;-144.47;48.66;53098.41;5054603;28;20027;-86
2022/08/10 03:42:59;;;;;;;5.85;2.85;;;;;;;-144.47;48.88;53116.28;5054458;28;20107;-86
2022/08/10 03:45:26;;;;;;;10.82;3.30;;;;;;;-144.47;49.01;53128.22;5058192;28;20024;-85
2022/08/10 03:47:54;;;;;;;13.77;3.10;;;;;;;-144.47;48.98;53086.50;5055174;28;20065;-84
2022/08/10 03:50:23;;;;;;;6.63;2.80;;;;;;;-144.47;49.22;53110.31;5074831;28;20158;-85
2022/08/10 03:52:57;;;;;;;7.70;3.13;;;;;;;-144.47;49.24;53116.28;5054793;28;20037;-85
2022/08/10 03:55:23;;;;;;;7.18;2.83;;;;;;;-144.47;49.53;53126.22;5072000;28;20028;-86
2022/08/10 03:57:54;;;;;;;8.20;2.83;;;;;;;-144.47;49.55;53094.44;5071871;28;20443;-88
2022/08/10 04:00:31;;;;;;;7.88;2.92;;;;;;;-144.47;49.90;53108.34;5054217;28;20028;-87
2022/08/10 04:03:00;;;;;;;7.80;3.13;;;;;;;-144.47;49.98;53116.28;5054238;28;20034;-88
2022/08/10 04:05:28;;;;;;;11.43;3.72;;;;;;;-144.47;50.14;53108.34;5053783;28;20032;-86
2022/08/10 04:07:55;;;;;;;4.70;2.83;;;;;;;-144.47;50.36;53122.25;5054304;28;20102;-87
2022/08/10 04:10:20;;;;;;;13.95;3.75;;;;;;;-144.47;50.49;53118.28;5054166;28;20114;-87
2022/08/10 04:12:46;;;;;;;8.27;3.10;;;;;;;-144.47;50.50;53126.22;5055451;28;20044;-87
2022/08/10 04:15:12;;;;;;;5.30;2.85;;;;;;;-144.47;50.51;53128.22;5056178;28;20379;-87
2022/08/10 04:17:50;;;;;;;17.45;3.30;;;;;;;-144.47;50.55;53124.22;5054722;28;20637;-87
2022/08/10 04:20:38;;;;;;;13.15;3.20;;;;;;;-144.47;50.75;53116.28;5054746;28;20082;-87
2022/08/10 04:23:23;;;;;;;9.45;3.03;;;;;;;-144.47;50.91;53110.31;5053729;28;20020;-87
2022/08/10 04:25:51;;;;;;;7.75;3.28;;;;;;;-144.47;50.96;53120.25;5055249;28;20463;-87
2022/08/10 04:28:25;;;;;;;8.63;2.90;;;;;;;-144.47;51.00;53106.34;5072168;28;20024;-85
2022/08/10 04:30:54;;;;;;;12.18;2.88;;;;;;;-144.47;51.18;53138.13;5071886;28;20055;-86
2022/08/10 04:33:30;;;;;;;7.32;2.95;;;;;;;-144.47;51.36;53152.03;5071994;28;20668;-87
2022/08/10 04:36:01;;;;;;;11.40;4.35;;;;;;;-144.47;51.24;53140.13;5056511;28;20092;-86
2022/08/10 04:38:37;;;;;;;10.20;3.38;;;;;;;-144.47;51.27;53124.22;5051435;28;20029;-86
2022/08/10 04:41:26;;;;;;;10.50;3.53;;;;;;;-144.47;51.40;53148.06;5050259;28;20025;-87
2022/08/10 04:43:55;;;;;;;6.45;3.20;;;;;;;-144.47;51.44;53098.41;5033748;28;20037;-87
2022/08/10 04:46:30;;;;;;;6.78;3.10;;;;;;;-144.47;51.47;53110.31;5071705;28;20016;-86
2022/08/10 04:49:00;;;;;;;7.47;3.88;;;;;;;-144.47;51.64;53098.41;5053693;28;20032;-87
2022/08/10 04:51:31;;;;;;;11.70;3.60;;;;;;;-144.47;51.69;53142.09;5055197;28;20056;-86
2022/08/10 04:53:56;;;;;;;7.47;3.33;;;;;;;-144.47;51.67;53114.31;5054413;28;20415;-87
2022/08/10 04:56:29;;;;;;;10.68;3.72;;;;;;;-144.47;51.70;53118.28;5072311;28;20020;-87
2022/08/10 04:59:00;;;;;;;9.43;3.28;;;;;;;-144.47;51.60;53106.34;5052978;28;20451;-87
2022/08/10 05:01:39;;;;;;;;;;;;;;;;;;;;;
2022/08/10 05:04:04;;;;;;;8.18;3.20;;;;;;;-144.47;51.62;53140.13;5072921;28;20027;-87
2022/08/10 05:06:35;;;;;;;7.47;3.45;;;;;;;-144.47;51.56;53104.38;5053506;28;20104;-87
2022/08/10 05:09:01;;;;;;;5.38;2.75;;;;;;;-144.47;51.67;53098.41;5054979;28;20028;-90
2022/08/10 05:11:26;;;;;;;12.40;3.15;;;;;;;-144.47;51.69;53158.00;5055786;28;20031;-88
2022/08/10 05:13:56;;;;;;;10.50;3.75;;;;;;;-144.47;51.87;53148.06;5073512;28;20029;-88
2022/08/10 05:16:22;;;;;;;11.23;3.47;;;;;;;-144.47;51.79;53136.16;5076691;28;20032;-87
2022/08/10 05:18:50;;;;;;;8.85;3.55;;;;;;;-144.47;51.82;53142.09;5065304;28;20080;-88
2022/08/10 05:21:25;;;;;;;14.82;4.20;;;;;;;-144.47;51.69;53142.09;5079513;28;20511;-87
2022/08/10 05:23:53;;;;;;;12.98;3.10;;;;;;;-144.47;51.51;53154.03;5063174;28;20480;-87
2022/08/10 05:26:19;;;;;;;14.70;3.63;;;;;;;-144.47;51.44;53122.25;5075368;28;20464;-90
2022/08/10 05:28:45;;;;;;;8.93;3.38;;;;;;;-144.47;51.26;53122.25;5058921;28;20040;-88
2022/08/10 05:31:10;;;;;;;10.05;3.67;;;;;;;-144.47;51.29;53130.19;5058453;28;20090;-86
2022/08/10 05:33:41;;;;;;;17.90;4.30;;;;;;;-144.47;51.04;53140.13;5057668;28;20506;-87
2022/08/10 05:36:29;;;;;;;10.10;3.38;;;;;;;-144.47;51.05;53150.06;5056508;28;20028;-86
2022/08/10 05:38:56;;;;;;;8.93;4.00;;;;;;;-144.47;51.14;53132.19;5049856;28;20028;-85
2022/08/10 05:41:28;;;;;;;9.57;3.78;;;;;;;-144.47;50.93;53098.41;5056348;28;20020;-86
2022/08/10 05:43:58;;;;;;;18.00;3.75;;;;;;;-144.47;50.95;53163.97;5036607;28;20025;-86
2022/08/10 05:46:24;;;;;;;12.85;3.30;;;;;;;-144.47;50.65;53156.00;5051084;28;20017;-86
2022/08/10 05:48:52;;;;;;;8.95;3.40;;;;;;;-144.47;50.61;53142.09;5075225;28;20108;-86
2022/08/10 05:51:18;;;;;;;16.08;4.13;;;;;;;-144.47;50.55;53120.25;5073965;28;20498;-82
2022/08/10 05:53:44;;;;;;;14.77;3.90;;;;;;;-144.47;50.25;53146.09;5073521;28;20036;-86
2022/08/10 05:56:19;;;;;;;11.95;3.65;;;;;;;-144.47;50.45;53142.09;5056035;28;20032;-86
2022/08/10 05:58:50;;;;;;;21.77;3.60;;;;;;;-144.47;50.20;53106.34;5073802;28;20032;-87
2022/08/10 06:01:27;;;;;;;13.85;4.95;;;;;;;-144.47;50.11;53126.22;5075561;28;20024;-87
2022/08/10 06:04:03;;;;;;;11.13;3.33;;;;;;;-144.47;49.94;53150.06;5075449;28;20020;-86
2022/08/10 06:06:35;;;;;;;18.30;4.07;;;;;;;-144.47;49.95;53136.16;5074331;28;20119;-86
2022/08/10 06:09:02;;;;;;;13.60;3.20;;;;;;;-144.47;49.88;53112.31;5056369;28;20495;-86
2022/08/10 06:11:32;;;;;;;8.25;3.72;;;;;;;-144.47;49.68;53128.22;5062013;28;20020;-86
2022/08/10 06:17:03;;;;;;;10.95;3.75;;;;;;;-144.47;49.46;53140.13;5073736;28;20399;-88
2022/08/10 06:19:31;;;;;;;7.43;3.85;;;;;;;-144.47;49.25;53086.50;5077625;28;20074;-88
2022/08/10 06:22:03;;;;;;;9.85;3.28;;;;;;;-144.47;49.48;53106.34;5076856;28;20016;-86
2022/08/10 06:24:41;;;;;;;19.45;4.60;;;;;;;-144.47;49.24;53084.50;5074489;28;20507;-86
2022/08/10 06:27:12;;;;;;;10.65;3.67;;;;;;;-144.47;49.09;53090.47;5079280;28;20023;-84
2022/08/10 06:29:42;;;;;;;17.70;3.67;;;;;;;-144.47;49.15;53114.31;5095315;28;20062;-85
2022/08/10 06:32:12;;;;;;;18.77;4.25;;;;;;;-144.47;49.09;53114.31;5086376;28;20038;-85
2022/08/10 06:34:46;;;;;;;25.05;4.07;;;;;;;-144.47;49.15;53130.19;5046562;28;20032;-86
2022/08/10 06:37:21;;;;;;;8.63;3.63;;;;;;;-144.47;49.16;53106.34;5043350;28;20025;-85
2022/08/10 06:39:50;;;;;;;17.40;3.92;;;;;;;-144.47;48.98;53150.06;5064117;28;20471;-86
2022/08/10 06:42:19;;;;;;;;;;;;;;;-144.47;49.06;53142.09;5054586;28;20107;-86
2022/08/10 06:44:55;;;;;;;;;;;;;;;-144.47;49.07;53112.31;5064622;28;19916;-84
2022/08/10 06:47:25;;;;;;;16.55;3.55;;;;;;;-144.47;48.54;53118.28;5057589;28;20007;-85
2022/08/10 06:49:55;;;;;;;17.00;4.53;;;;;;;-144.47;48.58;53114.31;5072834;28;20278;-85
2022/08/10 06:52:25;;;;;;;12.65;3.63;;;;;;;-144.47;48.17;53120.25;5054595;28;20029;-85
2022/08/10 06:54:56;;;;;;;7.53;3.60;;;;;;;-144.47;48.25;53116.28;5054590;28;20044;-86
2022/08/10 06:57:27;;;;;;;10.45;3.25;;;;;;;-144.47;48.08;53098.41;5071665;28;20488;-84
2022/08/10 07:00:08;;;;;;;13.50;3.97;;;;;;;-144.47;47.78;53110.31;5054130;28;20040;-86
2022/08/10 07:02:59;;;;;;;15.82;3.97;;;;;;;-144.47;47.29;53112.31;5072849;28;20024;-86
2022/08/10 07:05:29;;;;;;;19.38;3.92;;;;;;;-144.47;47.19;53096.41;5054400;28;20039;-87
2022/08/10 07:07:58;;;;;;;11.05;4.00;;;;;;;-144.47;47.05;53082.53;5047336;28;20028;-85
2022/08/10 07:10:31;;;;;;;7.78;3.70;;;;;;;-144.47;46.55;53086.50;5054383;28;20106;-86
2022/08/10 07:13:01;;;;;;;9.07;3.42;;;;;;;-144.47;46.46;53076.56;5057631;28;20105;-86
2022/08/10 07:15:28;;;;;;;16.52;3.30;;;;;;;-144.47;46.22;53088.47;5055249;28;20297;-85
2022/08/10 07:18:04;;;;;;;15.18;3.90;;;;;;;-144.47;45.90;53108.34;5073304;28;20029;-86
2022/08/10 07:20:35;;;;;;;10.25;3.65;;;;;;;-144.47;45.90;53052.72;5063755;28;20043;-86
2022/08/10 07:23:05;;;;;;;8.40;3.80;;;;;;;-144.47;45.74;53084.50;5077364;28;20055;-84
2022/08/10 07:25:39;;;;;;;16.90;3.90;;;;;;;-144.47;45.27;53094.44;5079437;28;20076;-84
2022/08/10 07:28:07;;;;;;;12.82;4.20;;;;;;;-144.47;45.10;53082.53;5076843;28;20035;-84
2022/08/10 07:31:03;;;;;;;10.32;4.07;;;;;;;-144.47;45.16;53076.56;5061230;28;20024;-86
2022/08/10 07:33:42;;;;;;;10.38;3.45;;;;;;;-144.47;44.86;53120.25;5062674;28;20124;-86
2022/08/10 07:36:09;;;;;;;13.32;3.40;;;;;;;-144.47;44.59;53096.41;5083052;28;20032;-85
2022/08/10 07:38:39;;;;;;;11.75;4.63;;;;;;;-144.47;44.70;53050.75;5061596;28;20083;-87
2022/08/10 07:41:06;;;;;;;9.23;3.80;;;;;;;-144.47;44.46;53090.47;5050383;28;20027;-85
2022/08/10 07:43:39;;;;;;;15.30;3.33;;;;;;;-144.47;43.46;53046.75;5057961;28;20070;-87
2022/08/10 07:46:10;;;;;;;13.07;3.50;;;;;;;-144.47;44.04;53076.56;5068889;28;20055;-85
2022/08/10 07:48:47;;;;;;;17.17;3.85;;;;;;;-144.47;42.93;53064.66;5057587;28;20412;-83
2022/08/10 07:51:17;;;;;;;34.13;6.37;;;;;;;-144.47;42.87;53078.53;5075161;28;20099;-85
2022/08/10 07:53:51;;;;;;;9.13;3.88;;;;;;;-144.47;42.18;53080.53;5074539;28;20059;-86
2022/08/10 07:56:25;;;;;;;85.53;6.70;;;;;;;-144.47;41.97;53066.63;5061140;28;20083;-85
2022/08/10 07:59:03;;;;;;;26.70;3.75;;;;;;;-144.47;41.43;53088.47;5041689;28;20034;-85
2022/08/10 08:01:36;;;;;;;12.25;3.40;;;;;;;-144.47;41.15;53046.75;5054157;28;20032;-86
2022/08/10 08:04:02;;;;;;;10.32;3.63;;;;;;;-144.47;41.10;53070.59;5072601;28;20460;-85
2022/08/10 08:06:34;;;;;;;10.95;3.03;;;;;;;-144.47;40.93;53082.53;5054005;28;20126;-86
2022/08/10 08:09:02;;;;;;;9.05;3.05;;;;;;;-144.47;40.72;53050.75;5053329;28;20468;-86
2022/08/10 08:11:30;;;;;;;17.63;2.90;;;;;;;-144.47;40.36;53078.53;5071270;28;20115;-85
2022/08/10 08:14:10;;;;;;;10.95;2.78;;;;;;;-144.47;40.41;53038.81;5052038;28;20048;-85
2022/08/10 08:16:40;;;;;;;16.05;3.35;;;;;;;-144.47;40.11;53042.78;5056421;28;20325;-85
2022/08/10 08:19:07;;;;;;;7.80;2.70;;;;;;;-144.47;39.88;53034.84;5053403;28;20429;-84
2022/08/10 08:21:34;;;;;;;10.88;2.90;;;;;;;-144.47;39.48;53024.91;5071675;28;20448;-85
2022/08/10 08:24:01;;;;;;;7.72;2.78;;;;;;;-144.47;39.10;53064.66;5053580;28;20472;-85
2022/08/10 08:26:28;;;;;;;7.15;3.03;;;;;;;-144.47;39.14;53070.59;5070908;28;20365;-85
2022/08/10 08:28:55;;;;;;;10.57;2.85;;;;;;;-144.47;38.90;53026.91;5052084;28;20039;-85
2022/08/10 08:31:22;;;;;;;6.07;2.67;;;;;;;-144.47;38.38;53062.66;5072751;28;20440;-85
2022/08/10 08:33:51;;;;;;;6.57;2.83;;;;;;;-144.47;38.54;53028.88;5053408;28;20484;-84
2022/08/10 08:36:21;;;;;;;5.10;2.58;;;;;;;-144.47;37.99;53030.88;5054816;28;20124;-86
2022/08/10 08:38:47;;;;;;;7.22;2.78;;;;;;;-144.47;37.80;53050.75;5061045;28;20064;-88
2022/08/10 08:41:34;;;;;;;9.77;2.53;;;;;;;-144.47;37.63;53034.84;5054515;28;20174;-86
2022/08/10 08:44:35;;;;;;;7.28;2.55;;;;;;;-144.47;37.37;53038.81;5077683;28;20016;-87
2022/08/10 08:47:11;;;;;;;8.15;2.80;;;;;;;-144.47;37.36;53030.88;5018310;28;20414;-87
2022/08/10 08:50:05;;;;;;;9.05;2.45;;;;;;;-144.47;37.16;53018.97;5070785;28;20175;-87
2022/08/10 08:53:05;;;;;;;7.95;2.63;;;;;;;-144.47;36.56;53034.84;5058509;28;20031;-87
2022/08/10 08:55:45;;;;;;;8.70;2.63;;;;;;;-144.47;36.76;52989.16;5059628;28;20476;-88
2022/08/10 08:58:33;;;;;;;12.60;2.95;;;;;;;-144.47;36.71;53020.94;5049064;28;20093;-88
2022/08/10 09:01:24;;;;;;;10.25;2.13;;;;;;;-144.47;35.86;52975.25;5071518;28;20043;-88
2022/08/10 09:03:54;;;;;;;10.02;2.33;;;;;;;-144.47;35.18;53026.91;5037301;28;20024;-88
2022/08/10 09:06:29;;;;;;;15.25;2.85;;;;;;;-144.47;35.63;53020.94;5038015;28;20560;-88
2022/08/10 09:09:18;;;;;;;10.50;2.63;;;;;;;-144.47;35.19;53042.78;5058983;28;20035;-88
2022/08/10 09:11:53;;;;;;;9.25;2.35;;;;;;;-144.47;35.27;53048.75;5062076;28;20028;-87
2022/08/10 09:14:38;;;;;;;9.80;2.10;;;;;;;-144.47;34.99;53044.78;5055962;28;20031;-88
2022/08/10 09:17:25;;;;;;;11.55;2.42;;;;;;;-144.47;34.50;52999.09;5072702;28;20458;-88
2022/08/10 09:20:13;;;;;;;10.43;2.67;;;;;;;-144.47;34.43;53011.00;5045349;28;20039;-87
2022/08/10 09:23:06;;;;;;;12.65;2.33;;;;;;;-144.47;34.34;53005.06;5062413;28;20059;-87
2022/08/10 09:25:43;;;;;;;13.82;2.75;;;;;;;-144.47;34.54;53015.00;5067438;28;20091;-86
2022/08/10 09:28:20;;;;;;;4.22;2.05;;;;;;;-144.47;34.34;53005.06;5050346;28;20029;-87
2022/08/10 09:30:55;;;;;;;10.05;2.42;;;;;;;-144.47;34.22;53034.84;5048439;28;20032;-86
2022/08/10 09:34:25;;;;;;;15.18;2.50;;;;;;;-144.47;34.08;53034.84;5047819;28;20032;-85
2022/08/10 09:37:15;;;;;;;9.20;2.30;;;;;;;-144.47;33.67;52991.16;4964680;28;20442;-86
2022/08/10 09:40:32;;;;;;;8.30;2.42;;;;;;;-144.47;33.81;53007.03;5066465;28;20075;-86
2022/08/10 09:43:04;;;;;;;11.07;2.30;;;;;;;-144.47;33.54;53016.97;4994565;28;20033;-89
2022/08/10 09:45:49;;;;;;;8.35;2.92;;;;;;;-144.47;33.42;53015.00;5003543;28;20031;-87
2022/08/10 09:48:23;;;;;;;8.73;2.35;;;;;;;-144.47;33.26;53046.75;4989677;28;20038;-85
2022/08/10 09:51:09;;;;;;;8.18;2.10;;;;;;;-144.47;33.70;53016.97;4992000;28;20053;-86
2022/08/10 09:54:25;;;;;;;11.80;2.35;;;;;;;-144.47;33.30;53016.97;5007678;28;20564;-87
2022/08/10 09:57:23;;;;;;;22.27;2.75;;;;;;;-144.47;33.40;52995.13;5002806;28;20485;-86
2022/08/10 09:59:54;;;;;;;6.53;2.30;;;;;;;-144.47;33.19;53030.88;5013605;28;20045;-87
2022/08/10 10:02:26;;;;;;;14.13;2.20;;;;;;;-144.47;32.78;52975.25;4995242;28;20030;-87
2022/08/10 10:08:04;;;;;;;9.18;2.22;;;;;;;-144.47;33.04;53009.03;5002427;28;20082;-87
2022/08/10 10:10:43;;;;;;;;;;;;;;;-144.47;32.84;52999.09;5006352;28;20465;-85
2022/08/10 10:13:40;;;;;;;8.40;2.40;;;;;;;-144.47;32.51;53007.03;5027886;28;19965;-88
2022/08/10 10:16:40;;;;;;;9.15;2.47;;;;;;;-144.47;32.43;52989.16;4994005;28;20037;-86
2022/08/10 10:19:31;;;;;;;10.95;2.47;;;;;;;-144.47;32.18;53007.03;4964699;28;20056;-89
2022/08/10 10:22:25;;;;;;;6.90;2.90;;;;;;;-144.47;31.92;52999.09;5045960;28;20100;-86
2022/08/10 10:25:07;;;;;;;18.48;2.45;;;;;;;-144.47;32.08;52995.13;5043473;28;20021;-88
2022/08/10 10:27:52;;;;;;;7.75;2.45;;;;;;;-144.47;32.31;52975.25;5057855;28;20029;-87
2022/08/10 10:30:22;;;;;;;9.00;2.88;;;;;;;-144.47;32.15;52987.19;5074477;28;20086;-87
2022/08/10 10:33:18;;;;;;;9.13;2.97;;;;;;;-144.47;31.82;52985.19;5071313;28;20383;-87
2022/08/10 10:35:53;;;;;;;12.88;2.42;;;;;;;-144.47;31.94;52983.22;5057569;28;20024;-87
2022/08/10 10:38:31;;;;;;;10.23;2.70;;;;;;;-144.47;32.29;53020.94;5058096;28;20036;-86
2022/08/10 10:41:14;;;;;;;11.02;2.40;;;;;;;-144.47;32.33;53022.94;5074916;28;20040;-86
2022/08/10 10:44:03;;;;;;;8.43;2.38;;;;;;;-144.47;32.58;52997.09;5071637;28;20111;-87
2022/08/10 10:46:55;;;;;;;3.97;2.08;;;;;;;-144.47;32.17;53011.00;5063928;28;20017;-85
2022/08/10 10:49:43;;;;;;;10.40;2.95;;;;;;;-144.47;31.71;52967.31;5047782;28;20459;-86
2022/08/10 10:53:04;;;;;;;6.10;2.03;;;;;;;-144.47;31.66;53011.00;5047121;28;20025;-86
2022/08/10 10:55:55;;;;;;;4.50;2.08;;;;;;;-144.47;31.58;53009.03;5067229;28;20032;-86
2022/08/10 10:58:32;;;;;;;5.88;2.47;;;;;;;-144.47;31.01;52975.25;5069794;28;20112;-86
2022/08/10 11:01:05;;;;;;;6.88;2.67;;;;;;;-144.47;30.99;53015.00;5071157;28;20021;-87
2022/08/10 11:04:00;;;;;;;8.27;2.58;;;;;;;-144.47;31.11;53018.97;5057623;28;20034;-89
2022/08/10 11:07:09;;;;;;;6.80;2.72;;;;;;;-144.47;30.99;52999.09;5071318;28;20032;-86
2022/08/10 11:09:56;;;;;;;13.00;2.60;;;;;;;-144.47;30.61;53005.06;5052407;28;20040;-85
2022/08/10 11:12:51;;;;;;;6.70;2.75;;;;;;;-144.47;30.75;53013.00;5050278;28;20020;-86
2022/08/10 11:15:40;;;;;;;7.68;2.30;;;;;;;-144.47;30.61;52955.41;5050784;28;20064;-86
2022/08/10 11:18:34;;;;;;;5.40;2.75;;;;;;;-144.47;29.79;52981.22;5068849;28;20122;-83
2022/08/10 11:21:14;;;;;;;7.95;2.22;;;;;;;-144.47;30.09;52961.34;5055231;28;20029;-85
2022/08/10 11:24:33;;;;;;;11.75;2.90;;;;;;;-144.47;29.68;52977.25;5047724;28;20484;-86
2022/08/10 11:27:32;;;;;;;10.45;2.70;;;;;;;-144.47;29.70;52935.53;4946980;28;20180;-86
2022/08/10 11:30:19;;;;;;;4.97;2.50;;;;;;;-144.47;29.62;52947.47;5018346;28;20037;-86
2022/08/10 11:33:08;;;;;;;17.17;3.13;;;;;;;-144.47;29.36;52959.38;5015067;28;20178;-85
2022/08/10 11:36:25;;;;;;;10.73;2.83;;;;;;;-144.47;28.82;52999.09;5016031;28;20059;-86
2022/08/10 11:39:01;;;;;;;10.15;2.90;;;;;;;-144.47;28.91;52949.44;4957745;28;20142;-86
2022/08/10 11:42:08;;;;;;;16.10;2.60;;;;;;;-144.47;29.05;52943.47;4995062;28;20493;-86
2022/08/10 11:44:44;;;;;;;6.75;2.58;;;;;;;-144.47;29.12;52959.38;4925302;29;20043;-87
2022/08/10 11:51:04;;;;;;;11.35;2.47;;;;;;;-144.47;29.38;52965.34;4908544;29;20052;-89
2022/08/10 11:54:11;;;;;;;5.53;2.70;;;;;;;-144.47;29.19;52955.41;4886321;29;20041;-88
2022/08/10 11:56:53;;;;;;;8.50;2.60;;;;;;;-144.47;28.93;52969.31;4908514;29;20535;-88
2022/08/10 12:03:11;;;;;;;13.55;2.72;;;;;;;-144.47;28.35;52959.38;4908384;29;20440;-89
2022/08/10 12:05:57;;;;;;;9.27;3.15;;;;;;;-144.47;28.30;52967.31;4906067;29;20032;-88
2022/08/10 12:12:24;;;;;;;12.18;3.00;;;;;;;-144.47;28.14;52937.53;4867064;29;20459;-88
2022/08/10 12:15:25;;;;;;;12.55;2.55;;;;;;;-144.47;28.03;52933.56;4878011;29;20060;-90
2022/08/10 12:22:03;;;;;;;9.70;2.80;;;;;;;-144.47;28.27;52925.59;4921629;28;20103;-82